Time;durP1;ratioP1;P1;durP2;ratioP2;P2;SDS_P1;SDS_P2;PMS_P1;PMS_P2;Temp;Humidity;BMP_temperature;BMP_pressure;BME280_temperature;BME280_humidity;BME280_pressure;Samples;Min_cycle;Max_cycle;Signal;HPM_P1;HPM_P2
2022/07/21 00:00:47;;;;;;;2.65;1.80;;;20.80;80.20;;;;;;4229153;28;20180;-63
2022/07/21 00:02:50;;;;;;;2.78;1.35;;;20.80;80.20;;;;;;4218460;28;20520;-61
2022/07/21 00:04:53;;;;;;;5.47;1.67;;;20.80;80.40;;;;;;4212687;28;20101;-60
2022/07/21 00:06:54;;;;;;;4.47;1.30;;;20.70;80.40;;;;;;4212392;28;20036;-62
2022/07/21 00:08:55;;;;;;;2.00;1.77;;;20.70;80.50;;;;;;4212353;28;20089;-66
2022/07/21 00:10:56;;;;;;;1.92;1.60;;;20.70;80.40;;;;;;4212250;28;20040;-63
2022/07/21 00:12:57;;;;;;;3.08;1.50;;;20.70;80.40;;;;;;4212813;28;20378;-62
2022/07/21 00:14:59;;;;;;;6.95;2.65;;;20.70;80.50;;;;;;4212009;28;20089;-63
2022/07/21 00:17:00;;;;;;;3.70;1.40;;;20.60;80.50;;;;;;4216598;28;20032;-63
2022/07/21 00:19:01;;;;;;;3.83;1.50;;;20.60;80.50;;;;;;4228309;28;20123;-62
2022/07/21 00:21:03;;;;;;;4.68;1.60;;;20.60;80.60;;;;;;4229283;28;20824;-63
2022/07/21 00:23:04;;;;;;;5.65;1.98;;;20.60;80.90;;;;;;4228397;28;20039;-61
2022/07/21 00:25:07;;;;;;;2.10;1.23;;;20.50;81.10;;;;;;4228698;28;20043;-61
2022/07/21 00:27:08;;;;;;;6.63;1.52;;;20.50;81.30;;;;;;4228548;27;20566;-61
2022/07/21 00:29:09;;;;;;;3.15;1.35;;;20.50;81.40;;;;;;4228565;28;20043;-65
2022/07/21 00:31:10;;;;;;;4.28;1.48;;;20.40;81.40;;;;;;4228673;28;20069;-63
2022/07/21 00:33:11;;;;;;;1.92;1.60;;;20.40;81.60;;;;;;4211422;28;20047;-66
2022/07/21 00:35:13;;;;;;;2.78;1.70;;;20.40;81.70;;;;;;4217744;28;20152;-61
2022/07/21 00:37:14;;;;;;;2.80;1.50;;;20.40;81.80;;;;;;4228897;28;20031;-63
2022/07/21 00:39:15;;;;;;;3.78;1.70;;;20.30;82.20;;;;;;4228866;28;20044;-62
2022/07/21 00:41:16;;;;;;;4.43;1.92;;;20.30;82.30;;;;;;4228136;28;20081;-63
2022/07/21 00:43:17;;;;;;;1.98;1.48;;;20.20;82.50;;;;;;4228887;28;20483;-62
2022/07/21 00:45:19;;;;;;;3.90;1.50;;;20.20;82.60;;;;;;4228387;28;20035;-64
2022/07/21 00:47:25;;;;;;;3.33;1.73;;;20.10;82.80;;;;;;4228930;28;20032;-65
2022/07/21 00:49:27;;;;;;;3.78;1.83;;;20.10;82.80;;;;;;4227639;27;20441;-61
2022/07/21 00:51:28;;;;;;;3.72;2.00;;;20.00;83.20;;;;;;4229024;28;20020;-64
2022/07/21 00:53:30;;;;;;;2.88;1.13;;;20.00;83.40;;;;;;4225999;28;20065;-64
2022/07/21 00:55:31;;;;;;;3.67;1.63;;;20.00;83.60;;;;;;4228961;28;20043;-64
2022/07/21 00:57:33;;;;;;;2.50;1.45;;;20.00;83.60;;;;;;4227752;28;20073;-64
2022/07/21 00:59:34;;;;;;;2.42;1.70;;;20.00;83.60;;;;;;4228823;28;20053;-64
2022/07/21 01:01:35;;;;;;;5.00;1.65;;;19.90;83.60;;;;;;4227603;28;20076;-63
2022/07/21 01:03:37;;;;;;;5.10;1.58;;;20.00;83.70;;;;;;4228693;28;20024;-62
2022/07/21 01:05:38;;;;;;;3.83;1.60;;;19.90;83.70;;;;;;4228227;28;20073;-62
2022/07/21 01:07:41;;;;;;;3.20;1.50;;;19.90;83.80;;;;;;4225631;28;20048;-63
2022/07/21 01:09:43;;;;;;;3.20;1.48;;;20.00;83.80;;;;;;4211566;28;20180;-65
2022/07/21 01:11:44;;;;;;;2.05;1.60;;;20.00;83.70;;;;;;4211239;28;20028;-63
2022/07/21 01:13:45;;;;;;;2.30;1.42;;;20.00;83.90;;;;;;4211547;28;20450;-62
2022/07/21 01:15:47;;;;;;;5.57;1.77;;;20.00;83.80;;;;;;4211118;28;20032;-63
2022/07/21 01:17:48;;;;;;;3.58;1.52;;;20.00;84.00;;;;;;4211412;28;20037;-63
2022/07/21 01:19:50;;;;;;;2.17;1.40;;;19.90;83.90;;;;;;4210796;28;20097;-61
2022/07/21 01:21:52;;;;;;;4.35;1.77;;;19.90;84.10;;;;;;4211517;28;20350;-62
2022/07/21 01:23:53;;;;;;;4.55;1.55;;;19.90;84.30;;;;;;4210380;28;20032;-61
2022/07/21 01:25:54;;;;;;;4.75;1.90;;;19.90;84.40;;;;;;4211571;28;20082;-63
2022/07/21 01:27:56;;;;;;;3.70;1.80;;;19.80;84.40;;;;;;4210622;28;20032;-66
2022/07/21 01:29:58;;;;;;;2.88;1.73;;;19.80;84.60;;;;;;4211361;28;20069;-62
2022/07/21 01:31:59;;;;;;;2.83;2.40;;;19.80;84.70;;;;;;4210817;28;20077;-61
2022/07/21 01:34:00;;;;;;;4.57;1.60;;;19.80;84.90;;;;;;4211598;28;20073;-62
2022/07/21 01:36:01;;;;;;;2.95;1.50;;;19.80;84.80;;;;;;4210989;28;20085;-61
2022/07/21 01:38:03;;;;;;;5.85;1.98;;;19.80;84.80;;;;;;4210872;28;20098;-61
2022/07/21 01:42:26;;;;;;;2.78;1.55;;;19.80;84.90;;;;;;4227831;28;20100;-63
2022/07/21 01:44:27;;;;;;;2.17;1.73;;;19.80;84.80;;;;;;4227504;28;20548;-65
2022/07/21 01:46:32;;;;;;;4.25;1.63;;;19.80;84.90;;;;;;4227646;28;20027;-61
2022/07/21 01:48:33;;;;;;;2.95;1.63;;;19.80;84.80;;;;;;4227646;28;20027;-62
2022/07/21 01:50:34;;;;;;;3.28;1.88;;;19.90;84.80;;;;;;4227257;28;20745;-65
2022/07/21 01:52:35;;;;;;;4.68;1.90;;;19.90;84.80;;;;;;4226939;28;20024;-61
2022/07/21 01:54:36;;;;;;;7.70;2.20;;;19.90;84.80;;;;;;4225354;28;20442;-62
2022/07/21 01:56:39;;;;;;;2.78;1.42;;;19.90;84.80;;;;;;4227855;28;20039;-62
2022/07/21 01:58:40;;;;;;;3.20;2.08;;;19.90;84.90;;;;;;4226885;28;20513;-63
2022/07/21 02:00:41;;;;;;;2.67;1.73;;;19.90;84.90;;;;;;4222398;28;20036;-65
2022/07/21 02:02:43;;;;;;;2.65;1.77;;;19.90;84.90;;;;;;4210119;28;20113;-63
2022/07/21 02:04:44;;;;;;;4.70;2.25;;;19.90;85.10;;;;;;4211536;28;20061;-63
2022/07/21 02:06:45;;;;;;;2.40;2.00;;;19.80;85.30;;;;;;4209879;28;20085;-63
2022/07/21 02:08:46;;;;;;;4.13;1.55;;;19.80;85.40;;;;;;4210669;28;20032;-62
2022/07/21 02:10:48;;;;;;;6.22;1.83;;;19.70;85.70;;;;;;4210009;28;20419;-61
2022/07/21 02:12:49;;;;;;;5.28;1.88;;;19.60;86.00;;;;;;4224270;28;20438;-64
2022/07/21 02:14:50;;;;;;;5.78;1.65;;;19.60;86.30;;;;;;4227052;28;20041;-63
2022/07/21 02:16:51;;;;;;;2.75;1.75;;;19.50;86.50;;;;;;4226815;28;20032;-62
2022/07/21 02:18:53;;;;;;;4.38;1.88;;;19.50;86.70;;;;;;4227038;28;20093;-61
2022/07/21 02:20:54;;;;;;;2.47;1.80;;;19.50;87.60;;;;;;4226396;28;20048;-64
2022/07/21 02:22:57;;;;;;;3.15;1.55;;;19.40;87.00;;;;;;4227155;28;20511;-60
2022/07/21 02:24:58;;;;;;;1.73;1.60;;;19.30;87.40;;;;;;4226633;28;20036;-63
2022/07/21 02:26:59;;;;;;;3.72;1.70;;;19.30;87.60;;;;;;4227123;28;20065;-63
2022/07/21 02:29:00;;;;;;;6.40;1.55;;;19.20;87.80;;;;;;4226367;28;20024;-64
2022/07/21 02:31:01;;;;;;;4.05;2.13;;;19.20;88.30;;;;;;4216902;28;20036;-61
2022/07/21 02:33:03;;;;;;;5.32;2.25;;;19.10;88.40;;;;;;4209765;28;20074;-63
2022/07/21 02:35:05;;;;;;;3.60;2.05;;;19.10;88.60;;;;;;4210900;28;20024;-62
2022/07/21 02:37:07;;;;;;;9.80;2.65;;;19.10;88.80;;;;;;4209533;28;20028;-62
2022/07/21 02:39:08;;;;;;;3.58;2.20;;;19.00;89.20;;;;;;4210377;28;20105;-62
2022/07/21 02:41:09;;;;;;;6.43;2.65;;;19.00;89.60;;;;;;4209669;28;20024;-62
2022/07/21 02:43:10;;;;;;;5.35;1.90;;;18.90;89.80;;;;;;4210185;28;20093;-64
2022/07/21 02:45:11;;;;;;;6.50;2.25;;;18.80;90.00;;;;;;4209597;28;20085;-62
2022/07/21 02:47:13;;;;;;;3.20;2.08;;;18.80;90.20;;;;;;4209867;28;20483;-62
2022/07/21 02:49:14;;;;;;;4.38;2.50;;;18.80;90.30;;;;;;4209584;28;20040;-62
2022/07/21 02:51:15;;;;;;;4.05;1.85;;;18.80;90.40;;;;;;4209723;28;20036;-64
2022/07/21 02:53:19;;;;;;;4.07;2.30;;;18.70;90.40;;;;;;4209853;28;20518;-62
2022/07/21 02:55:21;;;;;;;9.18;2.22;;;18.70;90.40;;;;;;4209688;28;20061;-65
2022/07/21 02:57:22;;;;;;;3.97;1.88;;;18.80;90.40;;;;;;4209934;28;20093;-61
2022/07/21 02:59:23;;;;;;;7.85;2.20;;;18.80;90.50;;;;;;4209632;28;20393;-62
2022/07/21 03:01:24;;;;;;;5.38;2.15;;;18.80;90.40;;;;;;4212376;28;20120;-61
2022/07/21 03:03:29;;;;;;;2.80;2.20;;;18.80;90.50;;;;;;4224557;28;20048;-61
2022/07/21 03:05:31;;;;;;;3.47;1.67;;;18.80;90.50;;;;;;4227358;28;20088;-63
2022/07/21 03:07:32;;;;;;;5.72;2.30;;;18.90;90.50;;;;;;4226046;28;20044;-64
2022/07/21 03:09:33;;;;;;;6.47;2.28;;;19.00;90.40;;;;;;4221983;28;20035;-61
2022/07/21 03:11:35;;;;;;;2.63;1.90;;;19.10;90.30;;;;;;4209289;28;20040;-63
2022/07/21 03:13:36;;;;;;;2.28;2.05;;;19.20;90.20;;;;;;4210687;28;20040;-63
2022/07/21 03:15:38;;;;;;;5.78;1.90;;;19.40;90.10;;;;;;4209346;28;20435;-62
2022/07/21 03:17:39;;;;;;;3.15;2.10;;;19.50;90.00;;;;;;4209887;28;20081;-63
2022/07/21 03:19:40;;;;;;;2.65;1.90;;;19.60;89.60;;;;;;4209326;28;20086;-61
2022/07/21 03:21:41;;;;;;;3.80;2.13;;;19.80;89.20;;;;;;4209589;28;20097;-61
2022/07/21 03:23:45;;;;;;;3.45;2.30;;;20.00;88.90;;;;;;4209505;28;20028;-62
2022/07/21 03:25:46;;;;;;;6.88;2.30;;;20.20;88.30;;;;;;4209309;28;20454;-62
2022/07/21 03:27:48;;;;;;;4.18;2.13;;;20.50;87.80;;;;;;4209856;28;20032;-63
2022/07/21 03:29:49;;;;;;;5.15;2.75;;;20.60;87.10;;;;;;4209341;28;20028;-60
2022/07/21 03:31:50;;;;;;;3.15;2.20;;;20.80;86.40;;;;;;4209641;28;20078;-63
2022/07/21 03:33:51;;;;;;;7.43;2.40;;;21.00;85.90;;;;;;4209048;28;20040;-65
2022/07/21 03:35:52;;;;;;;4.25;1.85;;;21.30;85.20;;;;;;4226136;28;20047;-62
2022/07/21 03:37:56;;;;;;;9.63;2.15;;;21.50;84.70;;;;;;4225573;28;20032;-61
2022/07/21 03:39:58;;;;;;;12.80;2.38;;;21.70;84.20;;;;;;4226677;28;20476;-62
2022/07/21 03:41:59;;;;;;;3.17;2.58;;;21.90;83.60;;;;;;4225705;28;20433;-61
2022/07/21 03:44:00;;;;;;;6.95;2.95;;;22.10;82.90;;;;;;4226418;28;20031;-62
2022/07/21 03:46:01;;;;;;;4.95;2.13;;;22.30;82.50;;;;;;4225865;28;20421;-60
2022/07/21 03:48:06;;;;;;;6.15;2.15;;;22.40;81.90;;;;;;4225902;28;20591;-65
2022/07/21 03:50:08;;;;;;;5.18;2.15;;;22.40;81.60;;;;;;4224396;28;20024;-64
2022/07/21 03:52:09;;;;;;;7.95;2.10;;;22.50;81.60;;;;;;4210299;28;20024;-62
2022/07/21 03:54:10;;;;;;;5.55;2.40;;;22.70;81.50;;;;;;4209250;28;20040;-64
2022/07/21 03:56:11;;;;;;;7.13;2.13;;;22.80;81.20;;;;;;4208837;28;20028;-63
2022/07/21 03:58:13;;;;;;;2.75;2.30;;;23.10;80.70;;;;;;4209185;28;20097;-62
2022/07/21 04:00:27;;;;;;;5.15;2.10;;;23.40;80.20;;;;;;4208151;28;20557;-61
2022/07/21 04:02:28;;;;;;;3.58;2.35;;;23.80;78.80;;;;;;4204919;28;20379;-62
2022/07/21 04:04:29;;;;;;;12.98;2.10;;;24.10;78.30;;;;;;4209060;28;20033;-63
2022/07/21 04:06:30;;;;;;;7.30;2.50;;;24.20;77.90;;;;;;4209330;28;20032;-61
2022/07/21 04:08:31;;;;;;;6.75;2.45;;;24.50;77.30;;;;;;4208116;28;20097;-60
2022/07/21 04:10:34;;;;;;;5.43;2.55;;;24.80;76.80;;;;;;4209327;28;20032;-65
2022/07/21 04:12:36;;;;;;;6.00;2.47;;;25.20;76.20;;;;;;4208172;28;20077;-61
2022/07/21 04:14:38;;;;;;;7.38;2.60;;;25.50;75.60;;;;;;4209294;28;20450;-62
2022/07/21 04:16:39;;;;;;;6.15;2.28;;;25.60;75.00;;;;;;4210629;28;20537;-61
2022/07/21 04:18:40;;;;;;;7.85;2.90;;;25.70;74.60;;;;;;4212280;28;20032;-63
2022/07/21 04:20:41;;;;;;;11.27;2.40;;;26.00;74.50;;;;;;4211177;28;20036;-62
2022/07/21 04:22:44;;;;;;;9.05;2.45;;;26.40;73.90;;;;;;4211952;28;20170;-61
2022/07/21 04:24:45;;;;;;;10.20;2.75;;;26.70;73.20;;;;;;4211459;28;20105;-62
2022/07/21 04:26:46;;;;;;;7.35;2.95;;;27.20;72.70;;;;;;4212009;28;20081;-60
2022/07/21 04:28:47;;;;;;;5.63;2.30;;;27.50;71.90;;;;;;4211902;28;20020;-62
2022/07/21 04:30:48;;;;;;;4.13;2.22;;;27.70;71.30;;;;;;4213396;28;20529;-62
2022/07/21 04:32:50;;;;;;;7.15;2.08;;;27.70;70.80;;;;;;4221171;28;20031;-63
2022/07/21 04:34:51;;;;;;;7.55;2.88;;;27.80;70.60;;;;;;4210157;28;20438;-64
2022/07/21 04:36:52;;;;;;;6.10;2.72;;;27.80;70.40;;;;;;4213988;28;20466;-66
2022/07/21 04:38:54;;;;;;;6.03;2.80;;;28.10;70.80;;;;;;4214136;27;20531;-65
2022/07/21 04:40:55;;;;;;;3.95;2.33;;;28.60;69.50;;;;;;4211668;28;20510;-64
2022/07/21 04:42:56;;;;;;;6.93;2.20;;;28.90;68.90;;;;;;4211076;28;20054;-63
2022/07/21 04:44:57;;;;;;;6.28;2.25;;;29.00;68.50;;;;;;4213599;28;20671;-65
2022/07/21 04:46:58;;;;;;;5.72;2.35;;;29.20;68.20;;;;;;4211864;28;20024;-63
2022/07/21 04:48:59;;;;;;;2.90;1.92;;;28.90;67.90;;;;;;4210200;28;20639;-62
2022/07/21 04:51:00;;;;;;;7.50;1.90;;;28.90;68.10;;;;;;4217897;28;20024;-63
2022/07/21 04:53:02;;;;;;;3.85;2.35;;;28.90;67.90;;;;;;4209724;28;20137;-66
2022/07/21 04:55:03;;;;;;;6.55;2.42;;;29.10;67.50;;;;;;4214707;28;20098;-64
2022/07/21 04:57:05;;;;;;;5.40;2.05;;;29.20;67.30;;;;;;4217989;28;20023;-63
2022/07/21 04:59:07;;;;;;;9.00;2.30;;;29.20;67.10;;;;;;4214422;28;20081;-63
2022/07/21 05:01:08;;;;;;;4.95;2.28;;;29.30;66.70;;;;;;4217889;28;20101;-66
2022/07/21 05:03:10;;;;;;;2.90;1.95;;;29.50;66.30;;;;;;4208040;27;20435;-63
2022/07/21 05:05:12;;;;;;;3.90;1.83;;;29.50;66.30;;;;;;4221590;28;20089;-63
2022/07/21 05:07:13;;;;;;;4.38;2.08;;;29.90;66.20;;;;;;4212389;28;20056;-66
2022/07/21 05:09:14;;;;;;;4.22;1.77;;;29.90;65.50;;;;;;4209003;28;20073;-63
2022/07/21 05:11:15;;;;;;;2.72;2.13;;;29.50;65.90;;;;;;4211605;28;20093;-63
2022/07/21 05:13:16;;;;;;;7.65;1.85;;;29.30;66.10;;;;;;4210666;28;20020;-61
2022/07/21 05:15:18;;;;;;;5.93;1.95;;;29.40;66.10;;;;;;4211129;28;20932;-62
2022/07/21 05:17:19;;;;;;;3.85;1.92;;;29.40;66.00;;;;;;4210475;28;20027;-63
2022/07/21 05:19:20;;;;;;;7.85;2.25;;;29.90;65.80;;;;;;4210964;28;20101;-63
2022/07/21 05:21:21;;;;;;;5.38;2.65;;;30.50;65.10;;;;;;4210214;28;20468;-64
2022/07/21 05:23:22;;;;;;;3.25;2.38;;;30.70;64.60;;;;;;4211552;28;20488;-64
2022/07/21 05:25:23;;;;;;;3.72;1.90;;;30.60;64.20;;;;;;4210629;28;20089;-67
2022/07/21 05:27:25;;;;;;;3.45;1.90;;;30.70;64.30;;;;;;4209994;28;20419;-65
2022/07/21 05:29:26;;;;;;;5.18;2.08;;;30.80;64.20;;;;;;4210961;28;20043;-64
2022/07/21 05:31:27;;;;;;;3.38;1.73;;;30.70;64.20;;;;;;4211083;28;20085;-66
2022/07/21 05:33:28;;;;;;;3.08;2.03;;;30.70;63.90;;;;;;4210959;28;20101;-62
2022/07/21 05:35:30;;;;;;;5.20;2.63;;;30.80;63.90;;;;;;4210334;28;20078;-67
2022/07/21 05:37:31;;;;;;;3.40;2.22;;;31.10;63.50;;;;;;4210892;28;20029;-65
2022/07/21 05:39:32;;;;;;;5.88;2.22;;;31.40;63.20;;;;;;4220443;28;20043;-62
2022/07/21 05:41:33;;;;;;;6.93;2.42;;;31.90;62.90;;;;;;4212745;28;20043;-63
2022/07/21 05:43:35;;;;;;;4.20;1.90;;;32.50;62.20;;;;;;4205026;28;20085;-63
2022/07/21 05:45:36;;;;;;;6.13;2.38;;;32.40;61.90;;;;;;4210149;28;20089;-62
2022/07/21 05:47:37;;;;;;;4.43;2.45;;;31.90;62.20;;;;;;4209794;28;20472;-64
2022/07/21 05:49:39;;;;;;;5.93;2.22;;;31.60;62.50;;;;;;4211354;28;20509;-64
2022/07/21 05:51:40;;;;;;;4.35;1.80;;;32.00;62.40;;;;;;4209995;28;20305;-68
2022/07/21 05:53:41;;;;;;;7.63;2.50;;;32.10;62.00;;;;;;4210777;28;20096;-70
2022/07/21 05:55:42;;;;;;;5.90;2.45;;;32.10;61.90;;;;;;4211617;28;20031;-66
2022/07/21 05:57:43;;;;;;;9.27;2.50;;;32.10;61.90;;;;;;4210297;28;20028;-64
2022/07/21 05:59:45;;;;;;;8.48;2.17;;;32.40;61.90;;;;;;4210241;28;20078;-65
2022/07/21 06:01:46;;;;;;;9.07;2.13;;;32.90;61.40;;;;;;4209590;28;20020;-67
2022/07/21 06:03:49;;;;;;;5.80;1.92;;;33.30;61.10;;;;;;4218443;28;20099;-64
2022/07/21 06:05:50;;;;;;;4.15;2.00;;;33.70;60.70;;;;;;4217879;28;20504;-63
2022/07/21 06:07:52;;;;;;;4.78;2.53;;;34.40;60.30;;;;;;4210777;28;20048;-66
2022/07/21 06:09:53;;;;;;;3.72;2.45;;;34.80;59.80;;;;;;4209310;28;20085;-64
2022/07/21 06:11:54;;;;;;;4.05;2.22;;;34.60;59.40;;;;;;4211394;28;20036;-64
2022/07/21 06:13:55;;;;;;;6.88;2.47;;;34.60;59.60;;;;;;4197987;28;20062;-66
2022/07/21 06:15:57;;;;;;;5.00;2.00;;;34.40;59.60;;;;;;4193815;28;20032;-67
2022/07/21 06:17:58;;;;;;;6.28;2.13;;;34.20;59.80;;;;;;4193029;28;20033;-63
2022/07/21 06:19:59;;;;;;;2.90;1.80;;;34.20;59.80;;;;;;4202592;28;20031;-64
2022/07/21 06:22:02;;;;;;;4.30;2.03;;;34.30;60.00;;;;;;4217151;28;20027;-65
2022/07/21 06:24:03;;;;;;;4.65;2.00;;;34.20;60.00;;;;;;4208261;28;20361;-69
2022/07/21 06:26:05;;;;;;;7.00;2.20;;;34.30;59.70;;;;;;4212383;28;20058;-66
2022/07/21 06:28:07;;;;;;;7.35;2.47;;;34.30;59.50;;;;;;4213934;28;20483;-65
2022/07/21 06:30:09;;;;;;;4.75;2.15;;;34.60;59.20;;;;;;4213956;28;20048;-65
2022/07/21 06:32:10;;;;;;;6.32;2.25;;;34.80;59.00;;;;;;4222065;28;20533;-65
2022/07/21 06:34:11;;;;;;;8.00;2.35;;;34.80;59.00;;;;;;4209939;28;20073;-65
2022/07/21 06:36:12;;;;;;;7.22;2.42;;;34.60;58.80;;;;;;4212371;28;20429;-66
2022/07/21 06:38:13;;;;;;;8.43;3.33;;;34.50;59.10;;;;;;4212662;28;20085;-65
2022/07/21 06:40:14;;;;;;;3.35;2.20;;;34.30;59.10;;;;;;4208468;28;20048;-67
2022/07/21 06:42:15;;;;;;;5.50;2.45;;;34.40;59.10;;;;;;4214948;28;20023;-64
2022/07/21 06:44:16;;;;;;;12.13;2.65;;;34.30;59.00;;;;;;4209263;28;20040;-69
2022/07/21 06:46:18;;;;;;;3.63;2.50;;;34.00;58.60;;;;;;4210842;28;20088;-65
2022/07/21 06:48:19;;;;;;;6.82;2.90;;;32.70;59.30;;;;;;4206971;28;20065;-67
2022/07/21 06:50:20;;;;;;;8.55;2.58;;;32.30;60.50;;;;;;4210917;28;20109;-65
2022/07/21 06:52:21;;;;;;;2.92;2.00;;;32.20;60.70;;;;;;4206530;28;20464;-66
2022/07/21 06:54:23;;;;;;;6.32;1.98;;;32.20;60.50;;;;;;4207959;28;20086;-62
2022/07/21 06:56:24;;;;;;;2.30;1.70;;;32.50;60.10;;;;;;4208798;28;20085;-64
2022/07/21 06:58:25;;;;;;;3.42;2.00;;;33.10;59.30;;;;;;4214706;28;20035;-64
2022/07/21 07:00:26;;;;;;;7.80;2.72;;;33.20;58.50;;;;;;4205839;28;20117;-64
2022/07/21 07:02:28;;;;;;;2.28;1.55;;;33.10;58.80;;;;;;4207306;28;20172;-63
2022/07/21 07:04:29;;;;;;;4.63;1.90;;;33.20;58.60;;;;;;4207621;28;20020;-64
2022/07/21 07:06:30;;;;;;;9.05;2.03;;;32.90;57.80;;;;;;4208843;28;20097;-64
2022/07/21 07:08:31;;;;;;;2.70;1.58;;;32.50;58.40;;;;;;4213984;28;20477;-63
2022/07/21 07:10:33;;;;;;;3.92;2.30;;;32.60;58.30;;;;;;4216541;28;20077;-65
2022/07/21 07:12:35;;;;;;;2.90;1.70;;;33.10;58.30;;;;;;4211723;28;20062;-65
2022/07/21 07:14:38;;;;;;;4.70;1.85;;;33.60;57.90;;;;;;4209971;28;20032;-65
2022/07/21 07:16:40;;;;;;;2.28;1.90;;;34.00;57.30;;;;;;4214000;28;20468;-68
2022/07/21 07:18:41;;;;;;;4.47;1.85;;;34.00;57.30;;;;;;4215518;28;20044;-64
2022/07/21 07:20:42;;;;;;;4.32;1.70;;;33.90;57.30;;;;;;4206021;28;20048;-63
2022/07/21 07:22:44;;;;;;;2.45;1.50;;;33.70;57.50;;;;;;4210444;28;20073;-64
2022/07/21 07:24:45;;;;;;;3.40;2.00;;;33.50;57.80;;;;;;4215545;28;20085;-66
2022/07/21 07:26:46;;;;;;;4.90;2.20;;;33.40;58.10;;;;;;4216123;28;20084;-62
2022/07/21 07:28:47;;;;;;;4.22;2.00;;;33.30;58.20;;;;;;4215948;28;20085;-66
2022/07/21 07:30:49;;;;;;;6.45;2.30;;;33.20;58.50;;;;;;4206127;28;20089;-64
2022/07/21 07:32:50;;;;;;;2.70;2.20;;;32.70;58.80;;;;;;4213597;28;20098;-68
2022/07/21 07:34:51;;;;;;;2.35;1.75;;;32.40;58.80;;;;;;4211360;28;20453;-64
2022/07/21 07:36:52;;;;;;;2.35;1.60;;;32.30;59.00;;;;;;4208210;28;20104;-67
2022/07/21 07:38:55;;;;;;;7.60;2.42;;;32.30;58.90;;;;;;4214325;28;20077;-64
2022/07/21 07:40:56;;;;;;;3.67;2.10;;;32.10;59.00;;;;;;4207257;28;20120;-64
2022/07/21 07:42:57;;;;;;;2.90;1.80;;;32.10;59.50;;;;;;4211254;28;20048;-64
2022/07/21 07:44:59;;;;;;;4.00;1.95;;;32.20;59.40;;;;;;4214591;28;20092;-64
2022/07/21 07:47:03;;;;;;;4.47;2.22;;;32.20;59.70;;;;;;4216580;28;20051;-63
2022/07/21 07:49:04;;;;;;;2.88;1.75;;;32.10;59.50;;;;;;4215222;28;20040;-65
2022/07/21 07:51:05;;;;;;;9.50;1.80;;;32.00;59.20;;;;;;4216805;28;20043;-64
2022/07/21 07:53:06;;;;;;;4.90;2.20;;;31.70;59.20;;;;;;4220434;28;20035;-65
2022/07/21 07:55:10;;;;;;;4.15;2.35;;;31.60;59.20;;;;;;4218465;28;20093;-66
2022/07/21 07:57:11;;;;;;;5.75;2.22;;;31.60;59.30;;;;;;4209972;28;20109;-63
2022/07/21 07:59:12;;;;;;;4.50;2.25;;;31.50;59.60;;;;;;4214854;28;20028;-63
2022/07/21 08:01:16;;;;;;;6.43;1.85;;;31.60;59.70;;;;;;4216028;28;20120;-64
2022/07/21 08:03:17;;;;;;;4.57;2.58;;;31.30;59.60;;;;;;4217540;28;20495;-64
2022/07/21 08:05:18;;;;;;;8.88;2.35;;;31.30;59.90;;;;;;4209672;28;20044;-65
2022/07/21 08:07:19;;;;;;;5.22;1.92;;;31.50;59.80;;;;;;4212254;28;20069;-63
2022/07/21 08:09:20;;;;;;;3.20;2.25;;;31.50;59.80;;;;;;4214569;28;20027;-64
2022/07/21 08:11:22;;;;;;;5.50;2.20;;;31.60;60.00;;;;;;4221833;28;20081;-63
2022/07/21 08:13:23;;;;;;;2.00;1.80;;;31.70;59.80;;;;;;4219315;28;20044;-64
2022/07/21 08:15:25;;;;;;;3.08;2.05;;;31.90;59.50;;;;;;4211953;28;20365;-65
2022/07/21 08:17:26;;;;;;;2.42;1.88;;;31.70;59.30;;;;;;4212543;28;20090;-67
2022/07/21 08:19:27;;;;;;;3.13;1.92;;;31.90;59.00;;;;;;4211512;28;20163;-63
2022/07/21 08:21:30;;;;;;;4.43;1.80;;;31.70;59.00;;;;;;4212547;28;20036;-64
2022/07/21 08:23:31;;;;;;;3.15;1.88;;;31.60;59.10;;;;;;4216551;28;20089;-64
2022/07/21 08:25:33;;;;;;;3.97;2.05;;;31.60;59.30;;;;;;4222453;28;20071;-68
2022/07/21 08:27:34;;;;;;;4.47;1.92;;;31.50;59.30;;;;;;4211494;28;20057;-63
2022/07/21 08:29:36;;;;;;;2.75;1.60;;;31.60;59.30;;;;;;4212378;28;20032;-64
2022/07/21 08:31:37;;;;;;;3.05;1.80;;;31.40;59.20;;;;;;4222606;28;20522;-64
2022/07/21 08:33:38;;;;;;;5.05;2.00;;;31.60;59.60;;;;;;4229302;28;20529;-65
2022/07/21 08:35:39;;;;;;;3.70;1.67;;;31.60;59.30;;;;;;4225194;28;20032;-65
2022/07/21 08:37:41;;;;;;;3.00;2.00;;;31.70;59.10;;;;;;4214687;28;20036;-65
2022/07/21 08:39:42;;;;;;;2.25;1.73;;;31.70;59.00;;;;;;4226302;28;20195;-65
2022/07/21 08:41:44;;;;;;;4.07;1.88;;;31.70;59.10;;;;;;4228575;28;21306;-65
2022/07/21 08:43:47;;;;;;;5.78;2.10;;;31.60;59.30;;;;;;4228633;28;20023;-64
2022/07/21 08:45:49;;;;;;;5.03;2.28;;;31.70;59.20;;;;;;4228081;28;20061;-66
2022/07/21 08:47:55;;;;;;;6.88;2.38;;;31.60;59.00;;;;;;4225796;28;20077;-66
2022/07/21 08:49:57;;;;;;;3.28;1.75;;;31.70;58.50;;;;;;4222975;28;20082;-71
2022/07/21 08:51:58;;;;;;;2.38;1.75;;;31.60;58.30;;;;;;4211804;28;20032;-64
2022/07/21 08:54:00;;;;;;;5.78;2.17;;;31.60;58.50;;;;;;4210681;28;20435;-63
2022/07/21 08:56:02;;;;;;;4.28;2.00;;;31.50;58.40;;;;;;4211413;28;20056;-65
2022/07/21 08:58:03;;;;;;;5.07;1.95;;;31.30;59.10;;;;;;4211026;28;20349;-64
2022/07/21 09:00:06;;;;;;;3.05;1.65;;;31.20;58.80;;;;;;4216231;28;20039;-63
2022/07/21 09:02:33;;;;;;;3.42;1.73;;;31.10;58.80;;;;;;4210612;28;20040;-64
2022/07/21 09:04:35;;;;;;;5.32;1.90;;;31.20;58.30;;;;;;4211912;28;20032;-66
2022/07/21 09:06:49;;;;;;;3.58;1.77;;;30.90;58.80;;;;;;4209190;28;20032;-65
2022/07/21 09:08:54;;;;;;;3.05;1.85;;;31.10;58.60;;;;;;4213879;28;20827;-70
2022/07/21 09:11:08;;;;;;;2.95;1.50;;;31.30;58.60;;;;;;4212561;28;20078;-67
2022/07/21 09:13:09;;;;;;;5.70;1.90;;;31.30;57.80;;;;;;4214232;28;20044;-65
2022/07/21 09:15:18;;;;;;;4.85;1.95;;;31.20;58.40;;;;;;4213578;28;20290;-69
2022/07/21 09:17:20;;;;;;;5.78;2.38;;;30.90;58.30;;;;;;4217699;28;20023;-65
2022/07/21 09:19:27;;;;;;;4.63;1.70;;;30.90;58.10;;;;;;4210707;28;20036;-70
2022/07/21 09:21:29;;;;;;;3.05;1.30;;;30.90;57.80;;;;;;4211382;28;20044;-65
2022/07/21 09:23:30;;;;;;;1.90;1.52;;;30.90;58.10;;;;;;4210743;28;20020;-66
2022/07/21 09:25:52;;;;;;;2.13;1.67;;;30.90;59.00;;;;;;4211157;28;20612;-70
2022/07/21 09:28:09;;;;;;;4.15;1.95;;;31.10;58.60;;;;;;4193857;28;20102;-69
2022/07/21 09:30:10;;;;;;;4.82;1.63;;;31.10;58.50;;;;;;4194739;28;20040;-66
2022/07/21 09:32:13;;;;;;;5.55;1.70;;;31.00;58.40;;;;;;4193925;28;20101;-65
2022/07/21 09:34:14;;;;;;;3.88;1.27;;;31.00;58.60;;;;;;4195007;28;20059;-64
2022/07/21 09:36:18;;;;;;;5.43;2.30;;;31.00;58.60;;;;;;4194067;28;20067;-64
2022/07/21 09:38:19;;;;;;;15.05;3.33;;;30.90;59.40;;;;;;4201098;28;20046;-66
2022/07/21 09:40:20;;;;;;;5.00;1.75;;;30.70;58.60;;;;;;4211188;28;20105;-64
2022/07/21 09:42:29;;;;;;;3.58;1.73;;;30.70;58.70;;;;;;4213596;28;20036;-65
2022/07/21 09:44:31;;;;;;;3.95;2.00;;;30.90;58.70;;;;;;4218915;28;20541;-68
2022/07/21 09:46:33;;;;;;;5.10;1.95;;;30.90;58.60;;;;;;4210558;28;20464;-66
2022/07/21 09:48:37;;;;;;;5.43;1.60;;;30.90;58.60;;;;;;4210492;28;20027;-65
2022/07/21 09:50:38;;;;;;;16.58;3.35;;;30.90;58.70;;;;;;4210384;28;20468;-62
2022/07/21 09:52:44;;;;;;;5.65;1.92;;;30.70;58.00;;;;;;4210717;28;20114;-65
2022/07/21 09:54:45;;;;;;;11.55;1.77;;;30.60;58.30;;;;;;4210168;28;20616;-66
2022/07/21 09:56:47;;;;;;;22.30;3.40;;;30.40;57.90;;;;;;4210712;28;20101;-64
2022/07/21 09:58:51;;;;;;;3.90;1.85;;;30.30;57.40;;;;;;4210096;28;20089;-64
2022/07/21 10:00:53;;;;;;;9.55;2.13;;;30.00;57.50;;;;;;4209667;28;20109;-64
2022/07/21 10:02:56;;;;;;;15.20;2.50;;;29.90;57.60;;;;;;4210210;28;20090;-64
2022/07/21 10:05:18;;;;;;;6.07;1.80;;;30.00;58.70;;;;;;4210663;28;20077;-63
2022/07/21 10:07:21;;;;;;;3.00;1.60;;;30.10;58.10;;;;;;4209086;28;20097;-65
2022/07/21 10:09:22;;;;;;;19.27;2.50;;;30.30;57.50;;;;;;4204453;28;20449;-69
2022/07/21 10:11:25;;;;;;;7.65;1.90;;;30.20;56.80;;;;;;4205922;28;20479;-64
2022/07/21 10:13:27;;;;;;;11.15;1.85;;;30.20;56.80;;;;;;4209559;28;20080;-63
2022/07/21 10:15:29;;;;;;;1.90;1.00;;;30.30;56.90;;;;;;4209208;28;20028;-64
2022/07/21 10:17:30;;;;;;;5.72;1.58;;;30.50;56.60;;;;;;4210427;28;20036;-63
2022/07/21 10:19:40;;;;;;;6.68;1.42;;;30.70;56.20;;;;;;4209541;28;20074;-67
2022/07/21 10:21:50;;;;;;;8.90;1.67;;;30.80;56.70;;;;;;4209523;28;20093;-66
2022/07/21 10:23:54;;;;;;;8.20;1.80;;;30.80;56.80;;;;;;4209032;28;20032;-65
2022/07/21 10:25:56;;;;;;;5.85;1.95;;;30.90;57.00;;;;;;4219608;28;20077;-65
2022/07/21 10:28:14;;;;;;;3.47;1.38;;;30.70;56.40;;;;;;4221822;28;20024;-64
2022/07/21 10:30:15;;;;;;;4.00;1.65;;;30.50;56.80;;;;;;4217928;28;20044;-70
2022/07/21 10:32:28;;;;;;;2.95;1.35;;;30.50;56.30;;;;;;4211174;28;20093;-67
2022/07/21 10:34:35;;;;;;;5.30;1.42;;;30.60;55.50;;;;;;4210357;28;20040;-64
2022/07/21 10:36:37;;;;;;;3.38;1.10;;;30.70;54.80;;;;;;4209464;28;20016;-66